Flight Number: EUR3110 Duration: 9:30
Departure: Moscow Sheremetyevo (UUEE) at 08:30 Distance: 4037 Nm
Arrival: John F Kennedy Int'l (KJFK) at 18:00 Equipment: B747

Weather Information
Moscow / Sheremet'Ye , Russia (UUEE) 55-59N 037-30E May 23, 2018 - 08:00 PM EDT / 2018.05.24 0000 UTC
Wind: Variable at 2 MPH (2 KT):0
Visibility: greater than 7 mile(s):0 Temperature: 51 F (11 C) Dew Point: 50 F (10 C) Relative Humidity: 93% Pressure (altimeter): 30.15 in. Hg (1021 hPa)
ob: UUEE 240000Z VRB01MPS CAVOK 11/10 Q1021 R24L/CLRD62 NOSIG cycle: 0
Sunrise: 01:07 Sunset: 17:47 (UTC)

KENNEDY INTERNATIONAL AIRPORT , NY, United States (KJFK) 40-38N 073-46W 9M May 23, 2018 - 07:51 PM EDT / 2018.05.23 2351 UTC
Wind: from the W (270 degrees) at 8 MPH (7 KT):0
Visibility: 10 mile(s):0
Sky conditions: partly cloudy Temperature: 78.1 F (25.6 C) Dew Point: 52.0 F (11.1 C) Relative Humidity: 40% Pressure (altimeter): 29.96 in. Hg (1014 hPa) Pressure tendency: 0.03 inches (0.9 hPa) higher than three hours ago
ob: KJFK 232351Z 27007KT 10SM FEW070 SCT250 26/11 A2996 RMK AO2 SLP144 T02560111 10278 20244 53009 cycle: 0
Sunrise: 09:33 Sunset: 00:10 (UTC)

TAF:2018/05/23 21:08 TAF AMD KJFK 232100Z 2321/2424 36012G17KT P6SM SCT250 FM232300 31010KT P6SM FEW250 FM240300 32007KT P6SM SKC FM241200 35009KT P6SM SKC FM241700 VRB05KT P6SM SKC FM241900 18008KT P6SM SKC

Previous Pireps for this route
Date Aircraft Flight time Fuel used Landing rate On time
2015-05-06A34009.42163207-115Charter
2016-05-21B74709.22186414-142Yes
2017-05-13B74709.05204715-124Charter
(pireps marked green are flown by you)

Route map